createdAt,value
2017-10-01T00:01:39.195Z,11.80
2017-10-01T00:04:41.561Z,11.80
2017-10-01T00:07:43.538Z,11.80
2017-10-01T00:10:45.859Z,11.80
2017-10-01T00:13:47.806Z,11.80
2017-10-01T00:16:50.163Z,11.80
2017-10-01T00:19:52.156Z,11.80
2017-10-01T00:22:54.506Z,11.80
2017-10-01T00:25:57.439Z,11.80
2017-10-01T00:28:59.801Z,11.80
2017-10-01T00:32:01.833Z,11.80
2017-10-01T00:35:04.207Z,11.80
2017-10-01T00:38:06.138Z,11.90
2017-10-01T00:41:08.505Z,11.80
2017-10-01T00:44:10.438Z,11.80
2017-10-01T00:47:13.626Z,11.80
2017-10-01T00:50:15.562Z,11.80
2017-10-01T00:53:18.655Z,11.80
2017-10-01T00:56:20.609Z,11.80
2017-10-01T00:59:22.961Z,11.80
2017-10-01T01:02:25.054Z,11.80
2017-10-01T01:05:27.483Z,11.80
2017-10-01T01:08:29.420Z,11.80
2017-10-01T01:11:31.780Z,11.70
2017-10-01T01:14:33.730Z,11.70
2017-10-01T01:17:36.077Z,11.70
2017-10-01T01:20:38.894Z,11.70
2017-10-01T01:23:41.212Z,11.70
2017-10-01T01:26:43.371Z,11.70
2017-10-01T01:29:45.845Z,11.70
2017-10-01T01:32:47.787Z,11.70
2017-10-01T01:35:50.145Z,11.70
2017-10-01T01:38:52.090Z,11.70
2017-10-01T01:41:54.447Z,11.70
2017-10-01T01:44:56.378Z,11.70
2017-10-01T01:47:58.651Z,11.60
2017-10-01T01:51:01.080Z,11.60
2017-10-01T01:54:03.463Z,11.60
2017-10-01T01:57:05.398Z,11.60
2017-10-01T02:00:07.759Z,11.60
2017-10-01T02:03:09.715Z,11.60
2017-10-01T02:06:12.054Z,11.50
2017-10-01T02:09:14.044Z,11.50
2017-10-01T02:12:16.378Z,11.50
2017-10-01T02:15:18.354Z,11.40
2017-10-01T02:18:20.676Z,11.30
2017-10-01T02:21:22.602Z,11.30
2017-10-01T02:24:26.396Z,11.20
2017-10-01T02:27:29.196Z,11.10
2017-10-01T02:30:31.511Z,11.10
2017-10-01T02:33:34.216Z,11.00
2017-10-01T02:36:37.299Z,11.00
2017-10-01T02:39:39.235Z,10.90
2017-10-01T02:42:41.594Z,10.80
2017-10-01T02:45:43.533Z,10.80
2017-10-01T02:48:45.894Z,10.70
2017-10-01T02:51:47.847Z,10.70
2017-10-01T02:54:50.919Z,10.60
2017-10-01T02:57:52.849Z,10.60
2017-10-01T03:00:55.323Z,10.50
2017-10-01T03:03:57.245Z,10.50
2017-10-01T03:07:00.342Z,10.40
2017-10-01T03:10:02.290Z,10.30
2017-10-01T03:13:04.642Z,10.30
2017-10-01T03:16:06.629Z,10.30
2017-10-01T03:19:08.995Z,10.20
2017-10-01T03:22:10.930Z,10.10
2017-10-01T03:25:13.290Z,10.10
2017-10-01T03:28:15.274Z,10.10
2017-10-01T03:31:18.395Z,10.00
2017-10-01T03:34:20.331Z,10.00
2017-10-01T03:37:22.692Z,10.00
2017-10-01T03:40:24.641Z,10.00
2017-10-01T03:43:26.998Z,9.90
2017-10-01T03:46:28.930Z,9.90
2017-10-01T03:49:31.362Z,9.80
2017-10-01T03:52:33.296Z,9.80
2017-10-01T03:55:35.602Z,9.70
2017-10-01T03:58:37.800Z,9.60
2017-10-01T04:01:40.129Z,9.60
2017-10-01T04:04:42.196Z,9.50
2017-10-01T04:07:44.542Z,9.50
2017-10-01T04:10:46.476Z,9.40
2017-10-01T04:13:48.924Z,9.40
2017-10-01T04:16:50.874Z,9.40
2017-10-01T04:19:53.166Z,9.30
2017-10-01T04:22:55.098Z,9.30
2017-10-01T04:25:57.461Z,9.30
2017-10-01T04:28:59.488Z,9.20
2017-10-01T04:32:01.887Z,9.20
2017-10-01T04:35:03.905Z,9.20
2017-10-01T04:38:06.258Z,9.10
2017-10-01T04:41:08.209Z,9.10
2017-10-01T04:44:10.572Z,9.00
2017-10-01T04:47:12.494Z,9.00
2017-10-01T04:50:15.635Z,8.90
2017-10-01T04:53:17.599Z,8.90
2017-10-01T04:56:19.908Z,8.90
2017-10-01T04:59:21.839Z,8.80
2017-10-01T05:02:24.128Z,8.80
2017-10-01T05:05:26.074Z,8.80
2017-10-01T05:08:28.415Z,8.70
2017-10-01T05:11:30.352Z,8.70
2017-10-01T05:14:32.708Z,8.70
2017-10-01T05:17:34.661Z,8.70
2017-10-01T05:20:37.027Z,8.70
2017-10-01T05:23:38.968Z,8.60
2017-10-01T05:26:42.196Z,8.60
2017-10-01T05:29:44.297Z,8.60
2017-10-01T05:32:46.626Z,8.60
2017-10-01T05:35:49.394Z,8.60
2017-10-01T05:38:52.399Z,8.60
2017-10-01T05:41:54.333Z,8.50
2017-10-01T05:44:56.699Z,8.60
2017-10-01T05:47:58.631Z,8.60
2017-10-01T05:51:00.998Z,8.60
2017-10-01T05:54:02.931Z,8.60
2017-10-01T05:57:06.061Z,8.70
2017-10-01T06:00:08.008Z,8.60
2017-10-01T06:03:10.339Z,8.70
2017-10-01T06:06:12.383Z,8.70
2017-10-01T06:09:14.744Z,8.80
2017-10-01T06:12:16.682Z,8.80
2017-10-01T06:15:19.044Z,8.90
2017-10-01T06:18:20.990Z,9.00
2017-10-01T06:21:23.339Z,9.00
2017-10-01T06:24:25.419Z,9.10
2017-10-01T06:27:27.769Z,9.20
2017-10-01T06:30:29.802Z,9.50
2017-10-01T06:33:32.092Z,9.60
2017-10-01T06:36:34.018Z,9.90
2017-10-01T06:39:36.377Z,10.30
2017-10-01T06:42:38.307Z,10.30
2017-10-01T06:45:40.674Z,10.20
2017-10-01T06:48:42.618Z,10.20
2017-10-01T06:51:44.994Z,10.20
2017-10-01T06:54:47.037Z,10.20
2017-10-01T06:57:49.386Z,10.20
2017-10-01T07:00:51.500Z,10.20
2017-10-01T07:03:54.005Z,10.30
2017-10-01T07:06:56.053Z,10.40
2017-10-01T07:09:58.423Z,10.50
2017-10-01T07:13:00.481Z,11.10
2017-10-01T07:16:02.767Z,12.60
2017-10-01T07:19:04.767Z,14.40
2017-10-01T07:22:07.118Z,16.00
2017-10-01T07:25:09.077Z,17.60
2017-10-01T07:28:11.450Z,19.10
2017-10-01T07:31:13.491Z,20.10
2017-10-01T07:34:15.836Z,21.20
2017-10-01T07:37:18.096Z,22.30
2017-10-01T07:40:20.443Z,22.90
2017-10-01T07:43:22.407Z,23.80
2017-10-01T07:46:24.757Z,24.20
2017-10-01T07:49:26.687Z,24.60
2017-10-01T07:52:29.167Z,24.40
2017-10-01T07:55:31.108Z,24.60
2017-10-01T07:58:33.458Z,24.80
2017-10-01T08:01:35.411Z,25.40
2017-10-01T08:04:37.692Z,25.90
2017-10-01T08:07:39.658Z,26.20
2017-10-01T08:10:41.966Z,25.30
2017-10-01T08:13:43.903Z,25.50
2017-10-01T08:16:47.009Z,26.70
2017-10-01T08:19:49.259Z,26.70
2017-10-01T08:22:51.591Z,27.30
2017-10-01T08:25:54.388Z,28.00
2017-10-01T08:28:56.742Z,27.90
2017-10-01T08:31:58.674Z,27.70
2017-10-01T08:35:01.148Z,27.60
2017-10-01T08:38:04.613Z,27.90
2017-10-01T08:41:06.997Z,28.30
2017-10-01T08:44:08.937Z,28.80
2017-10-01T08:47:11.307Z,28.90
2017-10-01T08:50:13.344Z,28.80
2017-10-01T08:53:15.716Z,28.80
2017-10-01T08:56:17.755Z,29.10
2017-10-01T08:59:20.117Z,30.10
2017-10-01T09:02:22.055Z,30.70
2017-10-01T09:05:24.422Z,30.90
2017-10-01T09:08:26.365Z,30.90
2017-10-01T09:11:28.727Z,30.90
2017-10-01T09:14:31.282Z,31.30
2017-10-01T09:17:33.632Z,31.50
2017-10-01T09:20:35.562Z,31.70
2017-10-01T09:23:38.690Z,31.60
2017-10-01T09:26:40.710Z,31.60
2017-10-01T09:29:43.081Z,31.60
2017-10-01T09:32:45.114Z,31.70
2017-10-01T09:35:47.479Z,31.40
2017-10-01T09:38:49.416Z,31.30
2017-10-01T09:41:51.673Z,31.40
2017-10-01T09:44:53.665Z,31.20
2017-10-01T09:47:56.012Z,31.50
2017-10-01T09:50:57.952Z,31.40
2017-10-01T09:54:00.293Z,32.00
2017-10-01T09:57:03.497Z,32.20
2017-10-01T10:00:05.845Z,32.60
2017-10-01T10:03:07.899Z,33.00
2017-10-01T10:06:10.178Z,32.70
2017-10-01T10:09:12.112Z,32.80
2017-10-01T10:12:14.447Z,32.90
2017-10-01T10:15:16.500Z,32.80
2017-10-01T10:18:18.861Z,32.70
2017-10-01T10:21:20.792Z,32.00
2017-10-01T10:24:23.157Z,31.00
2017-10-01T10:27:25.095Z,30.40
2017-10-01T10:30:27.355Z,30.20
2017-10-01T10:33:29.827Z,29.90
2017-10-01T10:36:32.178Z,29.80
2017-10-01T10:39:34.131Z,30.00
2017-10-01T10:42:36.451Z,29.10
2017-10-01T10:45:39.398Z,29.10
2017-10-01T10:48:42.479Z,28.70
2017-10-01T10:51:44.490Z,28.70
2017-10-01T10:54:46.840Z,28.10
2017-10-01T10:57:48.880Z,28.30
2017-10-01T11:00:51.170Z,27.50
2017-10-01T11:03:53.182Z,27.30
2017-10-01T11:06:55.547Z,27.70
2017-10-01T11:09:57.601Z,28.40
2017-10-01T11:13:00.150Z,28.80
2017-10-01T11:16:02.105Z,29.40
2017-10-01T11:19:04.465Z,29.60
2017-10-01T11:22:07.449Z,29.20
2017-10-01T11:25:09.796Z,29.20
2017-10-01T11:28:11.741Z,29.50
2017-10-01T11:31:14.107Z,30.30
2017-10-01T11:34:16.041Z,31.10
2017-10-01T11:37:18.408Z,32.20
2017-10-01T11:40:20.343Z,33.00
2017-10-01T11:43:22.719Z,33.80
2017-10-01T11:46:24.657Z,33.90
2017-10-01T11:49:27.028Z,34.10
2017-10-01T11:52:28.972Z,33.90
2017-10-01T11:55:31.354Z,34.20
2017-10-01T11:58:33.397Z,35.00
2017-10-01T12:01:35.749Z,34.90
2017-10-01T12:04:38.311Z,35.20
2017-10-01T12:07:40.595Z,34.70
2017-10-01T12:10:42.672Z,34.10
2017-10-01T12:13:45.784Z,31.40
2017-10-01T12:16:48.034Z,31.30
2017-10-01T12:19:50.304Z,31.00
2017-10-01T12:22:52.246Z,31.20
2017-10-01T12:25:54.605Z,30.80
2017-10-01T12:28:56.645Z,31.30
2017-10-01T12:31:59.019Z,32.50
2017-10-01T12:35:01.094Z,33.10
2017-10-01T12:38:03.520Z,33.40
2017-10-01T12:41:05.447Z,33.90
2017-10-01T12:44:07.882Z,34.50
2017-10-01T12:47:10.689Z,33.40
2017-10-01T12:50:13.080Z,33.30
2017-10-01T12:53:15.100Z,32.40
2017-10-01T12:56:17.558Z,33.00
2017-10-01T12:59:19.554Z,33.80
2017-10-01T13:02:21.863Z,33.90
2017-10-01T13:05:23.790Z,34.80
2017-10-01T13:08:26.187Z,35.70
2017-10-01T13:11:28.107Z,36.20
2017-10-01T13:14:30.475Z,36.30
2017-10-01T13:17:32.412Z,35.80
2017-10-01T13:20:34.798Z,35.30
2017-10-01T13:23:36.931Z,35.00
2017-10-01T13:26:39.289Z,34.90
2017-10-01T13:29:41.243Z,35.60
2017-10-01T13:32:43.609Z,36.10
2017-10-01T13:35:45.658Z,36.40
2017-10-01T13:38:48.013Z,36.30
2017-10-01T13:41:50.002Z,35.70
2017-10-01T13:44:52.269Z,35.30
2017-10-01T13:47:54.216Z,35.00
2017-10-01T13:50:56.626Z,34.60
2017-10-01T13:53:58.562Z,34.50
2017-10-01T13:57:00.925Z,33.50
2017-10-01T14:00:02.860Z,33.10
2017-10-01T14:03:05.227Z,33.20
2017-10-01T14:06:07.165Z,33.40
2017-10-01T14:09:09.532Z,33.70
2017-10-01T14:12:11.485Z,33.10
2017-10-01T14:15:13.854Z,32.10
2017-10-01T14:18:15.791Z,31.40
2017-10-01T14:21:18.351Z,30.90
2017-10-01T14:24:20.416Z,30.10
2017-10-01T14:27:22.716Z,29.10
2017-10-01T14:30:24.711Z,28.80
2017-10-01T14:33:27.072Z,28.10
2017-10-01T14:36:29.005Z,27.30
2017-10-01T14:39:31.303Z,26.30
2017-10-01T14:42:33.242Z,25.80
2017-10-01T14:45:36.253Z,25.40
2017-10-01T14:48:38.960Z,24.30
2017-10-01T14:51:41.334Z,24.30
2017-10-01T14:54:43.357Z,24.10
2017-10-01T14:57:45.681Z,24.20
2017-10-01T15:00:48.394Z,23.10
2017-10-01T15:03:51.513Z,23.10
2017-10-01T15:06:53.496Z,22.20
2017-10-01T15:09:55.938Z,21.00
2017-10-01T15:12:58.635Z,19.40
2017-10-01T15:16:01.090Z,19.30
2017-10-01T15:19:03.021Z,18.90
2017-10-01T15:22:06.113Z,18.80
2017-10-01T15:25:08.073Z,18.80
2017-10-01T15:28:10.419Z,18.80
2017-10-01T15:31:12.375Z,18.90
2017-10-01T15:34:14.736Z,18.90
2017-10-01T15:37:16.776Z,18.90
2017-10-01T15:40:19.152Z,18.80
2017-10-01T15:43:21.189Z,18.80
2017-10-01T15:46:23.748Z,18.70
2017-10-01T15:49:26.404Z,18.60
2017-10-01T15:52:28.777Z,18.40
2017-10-01T15:55:30.832Z,18.20
2017-10-01T15:58:33.106Z,18.10
2017-10-01T16:01:35.030Z,18.10
2017-10-01T16:04:37.301Z,18.00
2017-10-01T16:07:39.336Z,17.90
2017-10-01T16:10:41.692Z,17.80
2017-10-01T16:13:43.658Z,17.70
2017-10-01T16:16:46.716Z,17.60
2017-10-01T16:19:48.669Z,17.40
2017-10-01T16:22:51.023Z,17.30
2017-10-01T16:25:53.073Z,17.10
2017-10-01T16:28:55.425Z,16.80
2017-10-01T16:31:57.367Z,16.60
2017-10-01T16:35:00.644Z,16.10
2017-10-01T16:38:02.587Z,16.10
2017-10-01T16:41:04.945Z,15.90
2017-10-01T16:44:06.898Z,15.70
2017-10-01T16:47:09.247Z,15.50
2017-10-01T16:50:11.182Z,15.30
2017-10-01T16:53:14.443Z,15.10
2017-10-01T16:56:17.148Z,15.00
2017-10-01T16:59:19.517Z,14.90
2017-10-01T17:02:21.661Z,14.80
2017-10-01T17:05:24.586Z,14.70
2017-10-01T17:08:27.309Z,14.50
2017-10-01T17:11:29.660Z,14.50
2017-10-01T17:14:32.395Z,14.50
2017-10-01T17:17:35.504Z,14.20
2017-10-01T17:20:37.456Z,14.20
2017-10-01T17:23:39.801Z,14.20
2017-10-01T17:26:41.748Z,14.10
2017-10-01T17:29:44.131Z,14.00
2017-10-01T17:32:46.249Z,14.00
2017-10-01T17:35:48.631Z,13.90
2017-10-01T17:38:50.680Z,13.80
2017-10-01T17:41:53.035Z,13.80
2017-10-01T17:44:54.973Z,13.70
2017-10-01T17:47:57.337Z,13.60
2017-10-01T17:50:59.300Z,13.60
2017-10-01T17:54:01.649Z,13.60
2017-10-01T17:57:03.741Z,13.50
2017-10-01T18:00:06.080Z,13.50
2017-10-01T18:03:08.101Z,13.40
2017-10-01T18:06:10.456Z,13.40
2017-10-01T18:09:12.393Z,13.40
2017-10-01T18:12:14.761Z,13.30
2017-10-01T18:15:16.722Z,13.30
2017-10-01T18:18:19.072Z,13.30
2017-10-01T18:21:21.021Z,13.20
2017-10-01T18:24:23.376Z,13.10
2017-10-01T18:27:25.438Z,13.10
2017-10-01T18:30:28.602Z,13.10
2017-10-01T18:33:30.548Z,13.00
2017-10-01T18:36:32.932Z,13.00
2017-10-01T18:39:34.960Z,13.00
2017-10-01T18:42:37.322Z,12.90
2017-10-01T18:45:39.451Z,12.90
2017-10-01T18:48:41.864Z,12.80
2017-10-01T18:51:43.982Z,12.80
2017-10-01T18:54:46.341Z,12.70
2017-10-01T18:57:48.276Z,12.70
2017-10-01T19:00:50.659Z,12.60
2017-10-01T19:03:52.695Z,12.60
2017-10-01T19:06:55.067Z,12.60
2017-10-01T19:09:57.006Z,12.50
2017-10-01T19:12:59.360Z,12.50
2017-10-01T19:16:01.609Z,12.40
2017-10-01T19:19:03.885Z,12.40
2017-10-01T19:22:05.930Z,12.40
2017-10-01T19:25:08.206Z,12.40
2017-10-01T19:28:10.168Z,12.40
2017-10-01T19:31:12.478Z,12.40
2017-10-01T19:34:14.441Z,12.40
2017-10-01T19:37:16.785Z,12.40
2017-10-01T19:40:19.559Z,12.40
2017-10-01T19:43:21.847Z,12.40
2017-10-01T19:46:23.798Z,12.40
2017-10-01T19:49:26.125Z,12.40
2017-10-01T19:52:28.068Z,12.40
2017-10-01T19:55:30.401Z,12.40
2017-10-01T19:58:32.350Z,12.50
2017-10-01T20:01:34.640Z,12.50
2017-10-01T20:04:36.581Z,12.50
2017-10-01T20:07:39.019Z,12.50
2017-10-01T20:10:40.954Z,12.50
2017-10-01T20:13:43.302Z,12.50
2017-10-01T20:16:45.256Z,12.50
2017-10-01T20:19:47.810Z,12.50
2017-10-01T20:22:49.856Z,12.50
2017-10-01T20:25:52.344Z,12.50
2017-10-01T20:28:54.474Z,12.40
2017-10-01T20:31:57.043Z,12.40
2017-10-01T20:34:58.981Z,12.40
2017-10-01T20:38:01.270Z,12.30
2017-10-01T20:41:03.287Z,12.30
2017-10-01T20:44:05.599Z,12.20
2017-10-01T20:47:07.584Z,12.20
2017-10-01T20:50:09.913Z,12.10
2017-10-01T20:53:12.640Z,12.00
2017-10-01T20:56:15.011Z,12.00
2017-10-01T20:59:16.938Z,12.00
2017-10-01T21:02:19.217Z,11.90
2017-10-01T21:05:21.243Z,11.90
2017-10-01T21:08:24.124Z,11.80
2017-10-01T21:11:26.065Z,11.80
2017-10-01T21:14:28.404Z,11.80
2017-10-01T21:17:30.359Z,11.80
2017-10-01T21:20:33.334Z,11.70
2017-10-01T21:23:35.267Z,11.60
2017-10-01T21:26:37.524Z,11.60
2017-10-01T21:29:39.580Z,11.60
2017-10-01T21:32:41.928Z,11.60
2017-10-01T21:35:43.966Z,11.50
2017-10-01T21:38:47.984Z,11.50
2017-10-01T21:41:49.922Z,11.50
2017-10-01T21:44:52.309Z,11.50
2017-10-01T21:47:54.240Z,11.50
2017-10-01T21:50:56.596Z,11.50
2017-10-01T21:53:59.826Z,11.60
2017-10-01T21:57:03.044Z,11.60
2017-10-01T22:00:05.019Z,11.50
2017-10-01T22:03:07.349Z,11.50
2017-10-01T22:06:09.312Z,11.50
2017-10-01T22:09:11.893Z,11.50
2017-10-01T22:12:13.891Z,11.50
2017-10-01T22:15:17.920Z,11.50
2017-10-01T22:18:19.862Z,11.50
2017-10-01T22:21:22.227Z,11.50
2017-10-01T22:24:24.371Z,11.50
2017-10-01T22:27:26.727Z,11.50
2017-10-01T22:30:28.659Z,11.50
2017-10-01T22:33:31.031Z,11.50
2017-10-01T22:36:32.955Z,11.50
2017-10-01T22:39:36.045Z,11.50
2017-10-01T22:42:37.971Z,11.50
2017-10-01T22:45:41.091Z,11.50
2017-10-01T22:48:43.296Z,11.50
2017-10-01T22:51:45.591Z,11.50
2017-10-01T22:54:47.512Z,11.50
2017-10-01T22:57:49.904Z,11.60
2017-10-01T23:00:51.839Z,11.70
2017-10-01T23:03:54.202Z,11.60
2017-10-01T23:06:56.433Z,11.60
2017-10-01T23:09:58.821Z,11.70
2017-10-01T23:13:00.754Z,11.70
2017-10-01T23:16:03.017Z,11.70
2017-10-01T23:19:04.938Z,11.80
2017-10-01T23:22:08.031Z,11.80
2017-10-01T23:25:10.771Z,11.80
2017-10-01T23:28:13.917Z,11.90
2017-10-01T23:31:15.935Z,11.80
2017-10-01T23:34:18.291Z,11.90
2017-10-01T23:37:20.308Z,11.90
2017-10-01T23:40:23.449Z,11.90
2017-10-01T23:43:25.435Z,11.90
2017-10-01T23:46:28.485Z,12.00
2017-10-01T23:49:30.416Z,12.00
2017-10-01T23:52:32.743Z,12.00
2017-10-01T23:55:34.819Z,12.00
2017-10-01T23:58:37.139Z,12.00
